Airfield :
LOGIN :

Register | Disclaimer

   EN    FR    IT 

 










Legend :    VFR   Marginal VFR   IFR   Intensive IFR   Very Intensive IFR
Visi :
Ceiling :
>= 8 km
>= 3000ft
5 to 8 km
1000 to 3000 ft
1500m to 5 km
500 to 1000 ft
800 to 1500m
200 to 500 ft
< 800m
< 200 ft
Symbols :   Thunderstorms  Fog  Heavy snow  Heavy precipitations  Wind > 20 kt
SIGMETs :     Misc.  Thunderstorms  Icing  Turbulence  Mountain Waves  Volcanic Ashes







- Airport Elevation : 33 ft
- IATA code : MHZ


EGUN - RAF Mildenhall

CURRENT METAR :
  • 200658Z AUTO 24006KT 9999 CLR 12/12 A3017 RMK AO2 SLP220 T01210121

EXPIRED METARs :
  • 200558Z AUTO 24006KT 9999 CLR 11/11 A3015 RMK AO2 SLP213 T01060106 10129 20098 52012
  • 200458Z AUTO 24004KT 9999 CLR 10/10 A3014 RMK AO2 SLP210 T01020102

TAF TAF EGUN
Valid from the 20 at 04:00 until the 21 at 10:00 UTC


200402Z 2004/2110 26009KT 9999 SCT070 QNH3011INS
BECMG 2018/2019 22006KT 9999 BKN040 OVC120 QNH3014INS
BECMG 2023/2024 21006KT 9000 -RA BKN010 OVC020 QNH3012INS
BECMG 2106/2107 15006KT 9999 NSW BKN015 620809 621701 QNH3011INS TX21/2015Z TN10/2006Z
No reported NOTAMs for that airfield.



MET'MAP, your aeronautical weather chart ! - Copyright ORBIFLY December 2007 - Disclaimer

ORBIFLY MET'MAP TEAM :

Programming & Development : Alexandra Zaïnal
Concept & Development : Baudouin d'Aumeries
Co-Development & Prog : Marc-Olivier Méhu
Technical & hardware support : Manuel Goepfert

Contact : metmap@orbifly.com




SOURCES & CREDITS :

   NOAA